Historyczne dane pomiarowe

Dodano dane terminowe – wersja testowa.

Dane z okresu 1951-2019

Wersja bazy: 1.34 [2019-03-16, lista zmian], aktualizacja planowana na 2019-04-15

Dane meteo z obszaru Polski uzyskane na podstawie danych udostępnionych przez Instytut Meteorologii i Gospodarki Wodnej – Państwowy Instytut Badawczy.

 

Wybierz Datę:    

       

TemperaturaWilgotnośćWiatrCiśnienieOpadyŚniegCzas trwania zjawisk
 Stacja t tx tn tng RH VA  wxwx mslp ppp RRR   cm mm wxwxwxwxwxwxwx
1964-01-17 -2.7 0.1-22.2--- 8.0 1.3---- 0.3-- 5---------
1964-01-18 -0.2 0.4 -9.3--- 8.0 2.7---- 0.2-- 6---------
1964-01-19 -0.7 -0.1 -1.5--- 8.0 2.7---- 0.0-- 6---------
1964-01-20 -1.7 -0.6 -2.9--- 8.0 1.3---- 0.0-- 6---------
1964-01-21 -1.5 0.1 -3.8--- 8.0 4.0---- 1.4-- 6---------
1964-01-22 1.7 2.6 -0.1--- 8.0 5.0---- 3.0-- 3---------
1964-01-23 -1.3 1.5 -2.4--- 5.0 2.0---- 0.3-- 3---------
1964-01-24 0.0 0.9 -3.4--- 8.0 4.7---- 3.4-- 3---------
1964-01-25 -1.1 1.4 -2.8--- 7.7 4.3---- 1.4-- 6---------
1964-01-26 -3.2 -0.7 -9.7--- 4.7 5.3---- 4.9-- 9---------
1964-01-27 -5.6 1.5 -7.7--- 7.0 5.3---- 0.2-- 11---------
1964-01-28 -8.5 -3.4-18.6--- 4.7 2.7---- 0.0-- 11---------
1964-01-29 -5.7 -4.1 -9.3--- 7.3 3.0---- 0.0-- 11---------
1964-01-30 -2.0 0.1 -4.6--- 3.3 6.0---- 0.2-- 11---------
1964-01-31 -0.2 1.4 -5.3--- 8.0 3.0---- 0.3-- 11---------
1964-02-01 1.1 1.7 0.1--- 8.0 3.3---- 3.9-- 10---------
1964-02-02 0.7 2.9 0.1--- 8.0 5.0---- 7.0-- 7---------
1964-02-03 -1.0 0.9 -2.9--- 6.3 2.7---- 2.7-- 6---------
1964-02-04 1.2 2.1 -2.4--- 8.0 4.0---- 5.5-- 6---------
1964-02-05 -1.1 1.4 -2.4--- 8.0 7.3---- 4.6-- 7---------
1964-02-06 -4.1 -1.6 -6.3--- 7.3 8.7---- 2.3-- 18---------
1964-02-07 -4.5 -1.9 -8.0--- 8.0 2.3---- 1.1-- 21---------
1964-02-08 0.5 1.9 -6.1--- 8.0 4.0---- 6.4-- 24---------
1964-02-09 -6.7 1.1-10.8--- 7.0 2.3---- 0.0-- 26---------
1964-02-10-11.5 -7.6-22.1--- 8.0 3.0---- 3.6-- 26---------
1964-02-11 -5.9 0.1-11.3--- 6.3 3.0---- 1.7-- 31---------
1964-02-12 -7.7 -5.6-15.4--- 7.7 1.3---- 4.6-- 36---------
1964-02-13-14.2 -6.1-15.7--- 5.7 3.7---- 7.6-- 53---------
1964-02-14-18.6-13.3-25.7--- 6.3 0.3---- 0.0-- 53---------
1964-02-15-22.2-10.0-28.8--- 2.3 0.3---- 0.0-- 53---------
271.9 ms

 

Źródłem pochodzenia danych jest Instytut Meteorologii i Gospodarki Wodnej – Państwowy Instytut Badawczy. Dane Instytutu Meteorologii i Gospodarki Wodnej – Państwowego Instytutu Badawczego zostały przetworzone.

Dane źródłowe można odnaleźć na stronie https://dane.imgw.pl